Time;durP1;ratioP1;P1;durP2;ratioP2;P2;SDS_P1;SDS_P2;PMS_P1;PMS_P2;Temp;Humidity;BMP_temperature;BMP_pressure;BME280_temperature;BME280_humidity;BME280_pressure;Samples;Min_cycle;Max_cycle;Signal;HPM_P1;HPM_P2
2023/01/09 00:00:07;;;;;;;1999.90;999.90;;;;;;;8.23;100.00;97107.78;4933890;29;20063;-74
2023/01/09 00:02:33;;;;;;;1999.90;999.90;;;;;;;8.33;100.00;97102.19;4933390;29;20110;-74
2023/01/09 00:04:58;;;;;;;1999.90;999.90;;;;;;;8.29;100.00;97091.06;4916233;29;20114;-75
2023/01/09 00:07:24;;;;;;;1999.90;999.90;;;;;;;8.26;100.00;97091.66;4933651;29;20046;-74
2023/01/09 00:09:49;;;;;;;1999.90;999.90;;;;;;;8.32;100.00;97079.56;4933407;29;20039;-75
2023/01/09 00:12:14;;;;;;;1999.90;999.90;;;;;;;8.16;100.00;97075.50;4933338;29;20094;-76
2023/01/09 00:14:40;;;;;;;1999.90;999.90;;;;;;;8.14;100.00;97064.09;4933338;29;20024;-74
2023/01/09 00:17:05;;;;;;;1999.90;999.90;;;;;;;8.11;100.00;97061.97;4933360;29;20032;-75
2023/01/09 00:19:33;;;;;;;1999.90;999.90;;;;;;;8.03;100.00;97059.94;4917244;29;20504;-75
2023/01/09 00:21:58;;;;;;;1999.90;999.90;;;;;;;8.02;100.00;97047.41;4936990;29;20059;-75
2023/01/09 00:24:24;;;;;;;1999.90;999.90;;;;;;;8.14;100.00;97041.50;4937181;29;20031;-76
2023/01/09 00:26:49;;;;;;;1999.90;999.90;;;;;;;8.14;100.00;97041.50;4937226;29;20742;-75
2023/01/09 00:29:14;;;;;;;1999.90;999.90;;;;;;;8.09;100.00;97015.97;4936998;29;20043;-74
2023/01/09 00:31:40;;;;;;;1999.90;999.90;;;;;;;8.14;100.00;97022.44;4937105;29;20059;-76
2023/01/09 00:34:09;;;;;;;1999.90;999.90;;;;;;;8.09;100.00;97020.59;4937027;29;20106;-74
2023/01/09 00:36:34;;;;;;;1999.90;999.90;;;;;;;8.12;100.00;97014.56;4937366;29;20031;-76
2023/01/09 00:38:59;;;;;;;1999.90;999.90;;;;;;;8.12;100.00;97020.00;4936797;29;20031;-75
2023/01/09 00:41:30;;;;;;;1999.90;999.90;;;;;;;8.00;100.00;97015.06;4936749;29;20570;-76
2023/01/09 00:44:01;;;;;;;1999.90;999.90;;;;;;;7.98;100.00;97016.47;4936863;29;20485;-75
2023/01/09 00:46:31;;;;;;;1999.90;999.90;;;;;;;7.95;100.00;97012.44;4936745;29;20032;-75
2023/01/09 00:48:57;;;;;;;1999.90;999.90;;;;;;;8.00;100.00;97001.44;4951628;29;20139;-76
2023/01/09 00:51:23;;;;;;;1999.90;999.90;;;;;;;8.09;100.00;97009.72;4957731;28;20051;-76
2023/01/09 00:53:49;;;;;;;1999.90;999.90;;;;;;;8.08;100.00;96999.94;4964375;28;20097;-75
2023/01/09 00:56:19;;;;;;;1999.90;999.90;;;;;;;8.05;100.00;96997.81;4964301;28;20019;-76
2023/01/09 00:58:45;;;;;;;1999.90;999.90;;;;;;;8.06;100.00;96993.97;4966610;28;20102;-76
2023/01/09 01:01:11;;;;;;;1999.90;999.90;;;;;;;8.01;100.00;97002.25;4949368;28;20125;-77
2023/01/09 01:03:36;;;;;;;1999.90;999.90;;;;;;;8.05;100.00;96997.81;4958397;28;20030;-75
2023/01/09 01:08:45;;;;;;;1999.90;999.90;;;;;;;8.14;100.00;96987.84;4955762;29;20253;-75
2023/01/09 01:11:11;;;;;;;1999.90;999.90;;;;;;;8.09;100.00;96985.19;4955489;29;20532;-76
2023/01/09 01:13:39;;;;;;;1999.90;999.90;;;;;;;8.15;100.00;96992.16;4954741;28;20173;-75
2023/01/09 01:16:06;;;;;;;1999.90;999.90;;;;;;;8.13;100.00;96988.13;4956723;28;20031;-76
2023/01/09 01:18:31;;;;;;;1999.90;999.90;;;;;;;8.04;100.00;96986.13;4959591;28;20038;-76
2023/01/09 01:20:57;;;;;;;1999.90;999.90;;;;;;;8.07;100.00;96987.44;4958805;28;20031;-75
2023/01/09 01:23:22;;;;;;;1999.90;999.90;;;;;;;8.18;100.00;96997.00;4956850;28;20045;-75
2023/01/09 01:25:48;;;;;;;1999.90;999.90;;;;;;;8.26;100.00;96999.03;4955226;28;20031;-74
2023/01/09 01:28:14;;;;;;;1999.90;999.90;;;;;;;8.27;100.00;96970.66;4955131;28;20027;-74
2023/01/09 01:30:41;;;;;;;1999.90;999.90;;;;;;;8.27;100.00;96969.88;4955174;28;20036;-75
2023/01/09 01:33:07;;;;;;;1999.90;999.90;;;;;;;8.19;100.00;96965.94;4954536;28;20021;-75
2023/01/09 01:35:33;;;;;;;1999.90;999.90;;;;;;;8.24;100.00;96963.09;4955080;28;20445;-74
2023/01/09 01:37:59;;;;;;;1999.90;999.90;;;;;;;8.14;100.00;96966.06;4955298;28;20020;-75
2023/01/09 01:40:24;;;;;;;1999.90;999.90;;;;;;;8.25;100.00;96962.00;4954818;28;20042;-75
2023/01/09 01:42:52;;;;;;;1999.90;999.90;;;;;;;8.13;100.00;96961.69;4954934;28;20024;-74
2023/01/09 01:45:28;;;;;;;1999.90;999.90;;;;;;;8.13;100.00;96944.56;4954734;28;20035;-75
2023/01/09 01:48:02;;;;;;;1999.90;999.90;;;;;;;8.24;100.00;96941.31;4955007;28;20613;-74
2023/01/09 01:50:39;;;;;;;1999.90;999.90;;;;;;;8.30;100.00;96945.56;4954489;28;20039;-74
2023/01/09 01:53:13;;;;;;;1999.90;999.90;;;;;;;8.13;100.00;96952.72;4954939;28;20117;-75
2023/01/09 01:55:49;;;;;;;1999.90;999.90;;;;;;;8.05;100.00;96954.22;4950619;28;20027;-75
2023/01/09 01:58:15;;;;;;;1999.90;999.90;;;;;;;8.13;100.00;96945.38;4945568;29;20437;-76
2023/01/09 02:00:45;;;;;;;1999.90;999.90;;;;;;;8.17;100.00;96929.22;4934709;29;20039;-75
2023/01/09 02:03:14;;;;;;;1999.90;999.90;;;;;;;8.16;100.00;96922.97;4950115;29;20413;-74
2023/01/09 02:05:39;;;;;;;1999.90;999.90;;;;;;;8.18;100.00;96926.19;4954162;29;20023;-76
2023/01/09 02:08:06;;;;;;;1999.90;999.90;;;;;;;8.25;100.00;96910.22;4954414;29;20035;-74
2023/01/09 02:10:32;;;;;;;1999.90;999.90;;;;;;;8.19;100.00;96894.31;4953791;29;20489;-77
2023/01/09 02:12:59;;;;;;;1999.90;999.90;;;;;;;8.22;100.00;96901.88;4953863;29;20029;-77
2023/01/09 02:15:28;;;;;;;1999.90;999.90;;;;;;;8.28;100.00;96898.75;4938282;29;20114;-75
2023/01/09 02:18:40;;;;;;;1999.90;999.90;;;;;;;8.28;100.00;96904.19;4934811;29;20050;-75
2023/01/09 02:21:18;;;;;;;1999.90;999.90;;;;;;;8.25;100.00;96893.88;4931670;29;20505;-75
2023/01/09 02:24:04;;;;;;;1999.90;999.90;;;;;;;8.23;100.00;96896.13;4917507;29;20038;-75
2023/01/09 02:26:41;;;;;;;1999.90;999.90;;;;;;;8.25;100.00;96884.91;4934669;29;20043;-75
2023/01/09 02:29:13;;;;;;;1999.90;999.90;;;;;;;8.16;100.00;96881.31;4934594;29;21008;-76
2023/01/09 02:31:38;;;;;;;1999.90;999.90;;;;;;;8.23;100.00;96884.41;4934614;29;20082;-77
2023/01/09 02:34:23;;;;;;;1999.90;999.90;;;;;;;8.29;100.00;96873.13;4934482;29;20114;-74
2023/01/09 02:37:16;;;;;;;1999.90;999.90;;;;;;;8.28;100.00;96865.25;4934628;29;20063;-74
2023/01/09 02:40:00;;;;;;;1999.90;999.90;;;;;;;8.28;100.00;96857.09;4934342;29;20066;-75
2023/01/09 02:42:26;;;;;;;1999.90;999.90;;;;;;;8.28;100.00;96847.00;4916437;29;20067;-74
2023/01/09 02:44:51;;;;;;;1999.90;999.90;;;;;;;8.25;100.00;96839.41;4916351;29;20070;-75
2023/01/09 02:47:17;;;;;;;1999.90;999.90;;;;;;;8.27;100.00;96850.78;4934342;29;20071;-74
2023/01/09 02:49:50;;;;;;;1999.90;999.90;;;;;;;8.28;100.00;96849.72;4934266;29;20032;-76
2023/01/09 02:52:27;;;;;;;1999.90;999.90;;;;;;;8.40;100.00;96852.69;4952099;29;20114;-74
2023/01/09 02:55:21;;;;;;;1999.90;999.90;;;;;;;8.35;100.00;96844.66;4953033;29;20373;-75
2023/01/09 02:58:03;;;;;;;1999.90;999.90;;;;;;;8.38;100.00;96838.59;4953151;29;20035;-76
2023/01/09 03:00:38;;;;;;;1999.90;999.90;;;;;;;8.36;100.00;96843.56;4952830;29;20121;-74
2023/01/09 03:03:26;;;;;;;1999.90;999.90;;;;;;;8.39;100.00;96833.94;4953289;29;20031;-76
2023/01/09 03:06:11;;;;;;;1999.90;999.90;;;;;;;8.35;100.00;96825.59;4952622;29;20106;-75
2023/01/09 03:08:41;;;;;;;1999.90;999.90;;;;;;;8.32;100.00;96830.84;4955417;29;20031;-77
2023/01/09 03:11:07;;;;;;;1999.90;999.90;;;;;;;8.26;100.00;96832.84;4954642;29;20042;-74
2023/01/09 03:13:46;;;;;;;1999.90;999.90;;;;;;;8.25;100.00;96831.25;4952185;29;20011;-74
2023/01/09 03:16:17;;;;;;;1999.90;999.90;;;;;;;8.29;100.00;96831.47;4952542;29;20023;-76
2023/01/09 03:18:46;;;;;;;1999.90;999.90;;;;;;;8.28;100.00;96819.75;4952987;29;20384;-74
2023/01/09 03:21:12;;;;;;;1999.90;999.90;;;;;;;8.26;100.00;96813.78;4952601;29;20495;-77
2023/01/09 03:23:52;;;;;;;1999.90;999.90;;;;;;;8.31;100.00;96816.41;4953147;29;20035;-75
2023/01/09 03:26:18;;;;;;;1999.90;999.90;;;;;;;8.27;100.00;96809.16;4955346;29;20065;-79
2023/01/09 03:28:44;;;;;;;1999.90;999.90;;;;;;;8.22;100.00;96823.69;4959594;29;20513;-75
2023/01/09 03:31:10;;;;;;;1999.90;999.90;;;;;;;8.25;100.00;96806.72;4953276;29;20083;-75
2023/01/09 03:33:35;;;;;;;1999.90;999.90;;;;;;;8.21;100.00;96811.16;4952705;29;20102;-75
2023/01/09 03:36:01;;;;;;;1999.90;999.90;;;;;;;8.14;100.00;96794.47;4952817;29;20027;-75
2023/01/09 03:38:26;;;;;;;1999.90;999.90;;;;;;;8.15;100.00;96798.78;4953508;29;20030;-75
2023/01/09 03:40:51;;;;;;;1999.90;999.90;;;;;;;8.13;100.00;96795.56;4953130;29;20687;-75
2023/01/09 03:43:17;;;;;;;1999.90;999.90;;;;;;;8.17;100.00;96788.41;4953402;29;20042;-77
2023/01/09 03:45:42;;;;;;;1999.90;999.90;;;;;;;8.20;100.00;96793.22;4939494;29;20034;-76
2023/01/09 03:48:08;;;;;;;1999.90;999.90;;;;;;;8.10;100.00;96809.81;4956873;29;20043;-75
2023/01/09 03:50:33;;;;;;;1999.90;999.90;;;;;;;8.11;100.00;96797.81;4956741;29;20047;-74
2023/01/09 03:52:58;;;;;;;1999.90;999.90;;;;;;;8.17;100.00;96796.56;4952953;28;20400;-75
2023/01/09 03:55:24;;;;;;;1999.90;999.90;;;;;;;8.22;100.00;96792.91;4952346;28;20015;-75
2023/01/09 03:57:51;;;;;;;1999.90;999.90;;;;;;;8.18;100.00;96778.28;4952741;28;20065;-75
2023/01/09 04:00:17;;;;;;;1999.90;999.90;;;;;;;8.17;100.00;96788.41;4952635;28;20030;-77
2023/01/09 04:02:43;;;;;;;1999.90;999.90;;;;;;;8.08;100.00;96782.09;4952410;28;20054;-75
2023/01/09 04:05:08;;;;;;;1999.90;999.90;;;;;;;8.12;100.00;96788.50;4952595;28;20517;-75
2023/01/09 04:07:34;;;;;;;1999.90;999.90;;;;;;;8.21;100.00;96788.56;4952700;28;20576;-74
2023/01/09 04:09:59;;;;;;;1999.90;999.90;;;;;;;8.29;100.00;96775.06;4953010;28;20055;-76
2023/01/09 04:12:24;;;;;;;1999.90;999.90;;;;;;;8.29;100.00;96774.25;4952667;29;20548;-74
2023/01/09 04:14:49;;;;;;;1999.90;999.90;;;;;;;8.26;100.00;96781.09;4952580;29;20028;-74
2023/01/09 04:17:15;;;;;;;1999.90;999.90;;;;;;;8.30;100.00;96779.38;4952637;29;20062;-75
2023/01/09 04:19:40;;;;;;;1999.90;999.90;;;;;;;8.24;100.00;96783.31;4952410;28;20422;-75
2023/01/09 04:22:06;;;;;;;1999.90;999.90;;;;;;;8.23;100.00;96781.72;4952334;28;20042;-75
2023/01/09 04:24:31;;;;;;;1999.90;999.90;;;;;;;8.20;100.00;96767.91;4952737;28;20034;-78
2023/01/09 04:26:56;;;;;;;1999.90;999.90;;;;;;;8.15;100.00;96762.56;4952380;29;20118;-76
2023/01/09 04:29:22;;;;;;;1999.90;999.90;;;;;;;8.18;100.00;96762.75;4952455;28;20035;-77
2023/01/09 04:31:47;;;;;;;1999.90;999.90;;;;;;;8.23;100.00;96754.47;4952770;28;20134;-76
2023/01/09 04:34:13;;;;;;;1999.90;999.90;;;;;;;8.22;100.00;96758.31;4952520;28;20106;-74
2023/01/09 04:36:38;;;;;;;1999.90;999.90;;;;;;;8.19;100.00;96753.47;4952525;28;20162;-75
2023/01/09 04:39:04;;;;;;;1999.90;999.90;;;;;;;8.12;100.00;96747.66;4953070;28;20113;-77
2023/01/09 04:41:48;;;;;;;1999.90;999.90;;;;;;;8.04;100.00;96740.25;4952500;28;20476;-75
2023/01/09 04:44:17;;;;;;;1999.90;999.90;;;;;;;8.06;100.00;96727.91;4951231;29;20396;-74
2023/01/09 04:46:43;;;;;;;1999.90;999.90;;;;;;;8.02;100.00;96720.66;4952467;28;20027;-75
2023/01/09 04:49:08;;;;;;;1999.90;999.90;;;;;;;8.01;100.00;96721.81;4951452;29;20031;-75
2023/01/09 04:51:34;;;;;;;1999.90;999.90;;;;;;;7.99;100.00;96703.03;4935204;29;20047;-76
2023/01/09 04:53:59;;;;;;;1999.90;999.90;;;;;;;7.97;100.00;96688.13;4953027;29;20023;-75
2023/01/09 04:56:24;;;;;;;1999.90;999.90;;;;;;;7.97;100.00;96690.84;4958662;28;20027;-77
2023/01/09 04:58:50;;;;;;;1999.90;999.90;;;;;;;7.98;100.00;96676.94;4957502;28;20058;-74
2023/01/09 05:01:15;;;;;;;1999.90;999.90;;;;;;;7.95;100.00;96671.31;4952655;29;20027;-75
2023/01/09 05:03:41;;;;;;;1999.90;999.90;;;;;;;7.95;100.00;96671.31;4952965;29;20058;-74
2023/01/09 05:06:06;;;;;;;1999.90;999.90;;;;;;;7.99;100.00;96677.72;4952986;28;20491;-77
2023/01/09 05:08:31;;;;;;;1999.90;999.90;;;;;;;7.95;100.00;96671.31;4957192;28;20023;-75
2023/01/09 05:10:57;;;;;;;1999.90;999.90;;;;;;;8.01;100.00;96672.78;4956881;29;20408;-75
2023/01/09 05:13:22;;;;;;;1999.90;999.90;;;;;;;8.03;100.00;96678.72;4957407;28;20043;-76
2023/01/09 05:15:47;;;;;;;1999.90;999.90;;;;;;;7.95;100.00;96676.75;4956705;28;20433;-77
2023/01/09 05:18:14;;;;;;;1999.90;999.90;;;;;;;8.02;100.00;96680.63;4959505;29;20040;-76
2023/01/09 05:20:40;;;;;;;1999.90;999.90;;;;;;;8.05;100.00;96684.66;4962180;29;20095;-76
2023/01/09 05:23:05;;;;;;;1999.90;999.90;;;;;;;8.08;100.00;96678.59;4965384;29;20512;-79
2023/01/09 05:25:30;;;;;;;1999.90;999.90;;;;;;;8.11;100.00;96669.81;4944995;29;20031;-75
2023/01/09 05:27:55;;;;;;;1999.90;999.90;;;;;;;8.02;100.00;96672.47;4957823;29;20023;-75
2023/01/09 05:30:21;;;;;;;1999.90;999.90;;;;;;;7.98;100.00;96665.25;4956941;29;20046;-79
2023/01/09 05:32:46;;;;;;;1999.90;999.90;;;;;;;7.95;100.00;96657.69;4961766;29;20019;-76
2023/01/09 05:35:11;;;;;;;1999.90;999.90;;;;;;;7.95;100.00;96654.97;4964774;29;20026;-77
2023/01/09 05:37:37;;;;;;;1999.90;999.90;;;;;;;7.95;100.00;96653.06;4963508;29;20497;-80
2023/01/09 05:40:02;;;;;;;1999.90;999.90;;;;;;;7.95;100.00;96653.06;4966727;28;20033;-81
2023/01/09 05:42:28;;;;;;;1999.90;999.90;;;;;;;8.04;100.00;96653.91;4976259;28;20122;-74
2023/01/09 05:44:53;;;;;;;1999.90;999.90;;;;;;;8.04;100.00;96664.00;4966169;28;20031;-75
2023/01/09 05:47:18;;;;;;;1999.90;999.90;;;;;;;8.01;100.00;96645.56;4956318;28;20523;-76
2023/01/09 05:49:44;;;;;;;1999.90;999.90;;;;;;;8.02;100.00;96633.53;4955214;29;20039;-75
2023/01/09 05:52:09;;;;;;;1999.90;999.90;;;;;;;8.01;100.00;96637.41;4954766;29;20047;-76
2023/01/09 05:54:34;;;;;;;1999.90;999.90;;;;;;;7.96;100.00;96646.47;4954866;29;20106;-74
2023/01/09 05:56:59;;;;;;;1999.90;999.90;;;;;;;7.95;100.00;96649.53;4957361;29;20036;-74
2023/01/09 05:59:25;;;;;;;1999.90;999.90;;;;;;;7.95;100.00;96654.97;4954787;29;20380;-75
2023/01/09 06:01:50;;;;;;;1999.90;999.90;;;;;;;7.91;100.00;96653.97;4954683;29;20042;-73
2023/01/09 06:04:16;;;;;;;1999.90;999.90;;;;;;;7.92;100.00;96650.16;4954641;29;20393;-76
2023/01/09 06:06:41;;;;;;;1999.90;999.90;;;;;;;7.91;100.00;96660.22;4954560;29;20120;-78
2023/01/09 06:09:06;;;;;;;1999.90;999.90;;;;;;;7.89;100.00;96651.53;4964048;28;20033;-74
2023/01/09 06:11:37;;;;;;;1999.90;999.90;;;;;;;7.96;100.00;96656.56;4959482;28;20388;-74
2023/01/09 06:14:03;;;;;;;1999.90;999.90;;;;;;;7.93;100.00;96649.00;4955844;28;20026;-76
2023/01/09 06:16:28;;;;;;;1999.90;999.90;;;;;;;7.94;100.00;96662.34;4944091;29;20134;-75
2023/01/09 06:18:54;;;;;;;1999.90;999.90;;;;;;;7.88;100.00;96670.94;4934861;29;20119;-74
2023/01/09 06:21:19;;;;;;;1999.90;999.90;;;;;;;7.96;100.00;96670.97;4948266;28;20122;-75
2023/01/09 06:23:44;;;;;;;1999.90;999.90;;;;;;;8.05;100.00;96665.59;4953915;29;20023;-74
2023/01/09 06:26:09;;;;;;;1999.90;999.90;;;;;;;8.05;100.00;96660.94;4954203;29;20082;-75
2023/01/09 06:28:35;;;;;;;1999.90;999.90;;;;;;;8.12;100.00;96663.22;4936782;29;20124;-75
2023/01/09 06:31:00;;;;;;;1999.90;999.90;;;;;;;8.10;100.00;96657.31;4953581;29;20027;-74
2023/01/09 06:33:26;;;;;;;1999.90;999.90;;;;;;;8.13;100.00;96644.97;4936276;29;20031;-74
2023/01/09 06:35:51;;;;;;;1999.90;999.90;;;;;;;8.14;100.00;96641.16;4955549;29;20032;-86
2023/01/09 06:38:16;;;;;;;1999.90;999.90;;;;;;;8.14;100.00;96647.41;4965469;29;20081;-84
2023/01/09 06:40:42;;;;;;;1999.90;999.90;;;;;;;8.06;100.00;96653.59;4961656;29;20031;-85
2023/01/09 06:43:07;;;;;;;1999.90;999.90;;;;;;;8.10;100.00;96635.53;4957939;29;20024;-85
2023/01/09 06:45:32;;;;;;;1999.90;999.90;;;;;;;7.96;100.00;96645.66;4959720;29;20484;-85
2023/01/09 06:47:58;;;;;;;1999.90;999.90;;;;;;;7.93;100.00;96632.69;4956209;29;20031;-83
2023/01/09 06:50:23;;;;;;;1999.90;999.90;;;;;;;8.06;100.00;96643.50;4961856;29;20153;-77
2023/01/09 06:52:48;;;;;;;1999.90;999.90;;;;;;;8.13;100.00;96628.63;4954259;29;20034;-78
2023/01/09 06:55:15;;;;;;;1999.90;999.90;;;;;;;8.11;100.00;96620.00;4954280;29;20034;-80
2023/01/09 06:57:40;;;;;;;1999.90;999.90;;;;;;;8.15;100.00;96620.94;4954491;29;20480;-81
2023/01/09 07:00:06;;;;;;;1999.90;999.90;;;;;;;8.09;100.00;96621.09;4953881;29;20034;-79
2023/01/09 07:02:32;;;;;;;1999.90;999.90;;;;;;;8.17;100.00;96614.09;4954006;29;20094;-82
2023/01/09 07:04:57;;;;;;;1999.90;999.90;;;;;;;8.16;100.00;96617.13;4955565;29;20476;-79
2023/01/09 07:07:22;;;;;;;1999.90;999.90;;;;;;;8.21;100.00;96634.13;4954362;29;20027;-79
2023/01/09 07:09:48;;;;;;;1999.90;999.90;;;;;;;8.27;100.00;96626.66;4939621;29;20031;-75
2023/01/09 07:12:14;;;;;;;1999.90;999.90;;;;;;;8.20;100.00;96612.66;4937029;29;20035;-80
2023/01/09 07:14:39;;;;;;;1999.90;999.90;;;;;;;8.06;100.00;96607.28;4934318;29;20055;-86
2023/01/09 07:17:05;;;;;;;1999.90;999.90;;;;;;;8.06;100.00;96615.47;4938874;29;20032;-86
2023/01/09 07:19:31;;;;;;;1999.90;999.90;;;;;;;8.05;100.00;96622.00;4955209;28;20050;-83
2023/01/09 07:21:56;;;;;;;1999.90;999.90;;;;;;;8.07;100.00;96619.81;4964492;28;20028;-83
2023/01/09 07:24:22;;;;;;;1999.90;999.90;;;;;;;8.05;100.00;96619.28;4962125;28;20114;-87
2023/01/09 07:26:47;;;;;;;1999.90;999.90;;;;;;;8.06;100.00;96613.56;4964638;28;20054;-82
2023/01/09 07:29:12;;;;;;;1999.90;999.90;;;;;;;8.10;100.00;96608.28;4969923;28;20065;-84
2023/01/09 07:31:38;;;;;;;1999.90;999.90;;;;;;;8.11;100.00;96614.53;4968855;28;20042;-84
2023/01/09 07:34:03;;;;;;;1999.90;999.90;;;;;;;8.11;100.00;96612.63;4980644;28;20023;-86
2023/01/09 07:36:28;;;;;;;1999.90;999.90;;;;;;;8.08;100.00;96610.53;4980240;28;20112;-83
2023/01/09 07:38:54;;;;;;;1999.90;999.90;;;;;;;7.99;100.00;96596.84;4971430;28;20041;-80
2023/01/09 07:41:19;;;;;;;1999.90;999.90;;;;;;;8.09;100.00;96601.22;4940815;29;20035;-80
2023/01/09 07:43:44;;;;;;;1999.90;999.90;;;;;;;8.05;100.00;96592.88;4955782;29;20019;-81
2023/01/09 07:46:10;;;;;;;1999.90;999.90;;;;;;;8.04;100.00;96593.19;4955055;29;20027;-80
2023/01/09 07:48:35;;;;;;;1999.90;999.90;;;;;;;8.02;100.00;96590.78;4958376;29;20043;-83
2023/01/09 07:51:00;;;;;;;1999.90;999.90;;;;;;;8.02;100.00;96573.63;4961831;29;20051;-84
2023/01/09 07:53:26;;;;;;;1999.90;999.90;;;;;;;8.04;100.00;96566.78;4963713;29;20074;-85
2023/01/09 07:55:51;;;;;;;1999.90;999.90;;;;;;;7.93;100.00;96559.97;4959622;29;20047;-85
2023/01/09 07:58:17;;;;;;;1999.90;999.90;;;;;;;7.93;100.00;96554.53;4958447;29;20024;-84
2023/01/09 08:00:42;;;;;;;1999.90;999.90;;;;;;;7.91;100.00;96564.13;4956394;29;20070;-85
2023/01/09 08:03:07;;;;;;;1999.90;999.90;;;;;;;7.92;100.00;96568.47;4958700;29;20047;-83
2023/01/09 08:05:33;;;;;;;1999.90;999.90;;;;;;;8.01;100.00;96561.97;4957848;29;20035;-85
2023/01/09 08:07:58;;;;;;;1999.90;999.90;;;;;;;8.02;100.00;96568.19;4954771;29;20056;-81
2023/01/09 08:10:23;;;;;;;1999.90;999.90;;;;;;;8.16;100.00;96563.47;4953019;29;20067;-82
2023/01/09 08:12:49;;;;;;;1999.90;999.90;;;;;;;8.23;100.00;96552.94;4953803;29;20485;-78
2023/01/09 08:15:15;;;;;;;1999.90;999.90;;;;;;;8.28;100.00;96550.06;4952839;29;20049;-78
2023/01/09 08:17:42;;;;;;;1999.90;999.90;;;;;;;8.42;100.00;96560.88;4953218;29;20405;-81
2023/01/09 08:20:12;;;;;;;1999.90;999.90;;;;;;;8.40;100.00;96563.09;4952710;29;20053;-83
2023/01/09 08:22:41;;;;;;;1999.90;999.90;;;;;;;8.35;100.00;96560.53;4952799;29;20062;-83
2023/01/09 08:25:08;;;;;;;1999.90;999.90;;;;;;;8.41;100.00;96565.50;4952951;29;20039;-81
2023/01/09 08:27:34;;;;;;;1999.90;999.90;;;;;;;8.45;100.00;96562.97;4935777;29;20118;-79
2023/01/09 08:29:59;;;;;;;1999.90;999.90;;;;;;;8.49;100.00;96561.19;4951845;29;20114;-83
2023/01/09 08:32:25;;;;;;;1999.90;999.90;;;;;;;8.52;100.00;96566.81;4953767;29;20031;-84
2023/01/09 08:34:50;;;;;;;1999.90;999.90;;;;;;;8.53;100.00;96573.06;4955745;29;20027;-80
2023/01/09 08:37:16;;;;;;;1999.90;999.90;;;;;;;8.51;100.00;96573.41;4953686;29;20030;-80
2023/01/09 08:39:41;;;;;;;1999.90;999.90;;;;;;;8.52;100.00;96575.00;4953069;29;20027;-84
2023/01/09 08:47:34;;;;;;;1999.90;999.90;;;;;;;8.59;100.00;96578.06;4957059;29;20039;-83
2023/01/09 08:50:00;;;;;;;1999.90;999.90;;;;;;;8.63;100.00;96574.72;4958313;29;20024;-83
2023/01/09 08:52:25;;;;;;;1999.90;999.90;;;;;;;8.56;100.00;96564.25;4958450;29;20059;-80
2023/01/09 08:54:51;;;;;;;1999.90;999.90;;;;;;;8.54;100.00;96572.78;4954381;29;20031;-81
2023/01/09 08:57:16;;;;;;;1999.90;999.90;;;;;;;8.59;100.00;96578.06;4956790;29;20031;-81
2023/01/09 08:59:41;;;;;;;1999.90;999.90;;;;;;;8.58;100.00;96573.72;4956424;29;20024;-83
2023/01/09 09:02:08;;;;;;;1999.90;999.90;;;;;;;8.54;100.00;96564.59;4957232;29;20298;-83
2023/01/09 09:04:33;;;;;;;1999.90;999.90;;;;;;;8.58;100.00;96551.16;4960646;29;20095;-86
2023/01/09 09:06:58;;;;;;;1999.90;999.90;;;;;;;8.68;100.00;96560.94;4960103;29;20077;-88
2023/01/09 09:09:24;;;;;;;1999.90;999.90;;;;;;;8.79;100.00;96560.31;4959567;29;20512;-83
2023/01/09 09:11:50;;;;;;;1999.90;999.90;;;;;;;8.97;100.00;96542.06;4959925;29;20031;-86
2023/01/09 09:16:59;;;;;;;1999.90;999.90;;;;;;;9.05;100.00;96538.56;4956884;28;20041;-82
2023/01/09 09:19:24;;;;;;;1999.90;999.90;;;;;;;8.91;100.00;96537.88;4956600;28;20031;-80
2023/01/09 09:21:49;;;;;;;1999.90;999.90;;;;;;;8.96;100.00;96545.88;4957709;29;20039;-80
2023/01/09 09:24:15;;;;;;;1999.90;999.90;;;;;;;8.94;100.00;96556.31;4956432;29;20023;-79
2023/01/09 09:26:40;;;;;;;1999.90;999.90;;;;;;;8.89;100.00;96557.31;4957161;29;20023;-81
2023/01/09 09:29:05;;;;;;;1999.90;999.90;;;;;;;8.84;100.00;96554.72;4957850;29;20031;-78
2023/01/09 09:31:31;;;;;;;1999.90;999.90;;;;;;;8.82;100.00;96565.13;4956793;29;20547;-80
2023/01/09 09:33:57;;;;;;;1999.90;999.90;;;;;;;8.84;100.00;96573.78;4957633;29;20055;-78
2023/01/09 09:36:22;;;;;;;1999.90;999.90;;;;;;;8.85;100.00;96563.69;4957220;29;20031;-80
2023/01/09 09:38:48;;;;;;;1999.90;999.90;;;;;;;8.84;100.00;96560.16;4958213;29;20081;-75
2023/01/09 09:44:52;;;;;;;1999.90;999.90;;;;;;;8.88;100.00;96543.97;4957008;29;20054;-78
2023/01/09 09:47:26;;;;;;;1999.90;999.90;;;;;;;8.98;100.00;96554.56;4940162;29;20469;-79
2023/01/09 09:50:18;;;;;;;1999.90;999.90;;;;;;;8.90;100.00;96560.81;4952948;28;20038;-81
2023/01/09 09:52:47;;;;;;;1999.90;999.90;;;;;;;8.85;100.00;96574.59;4960301;28;20050;-81
2023/01/09 09:55:26;;;;;;;1999.90;999.90;;;;;;;8.78;100.00;96574.25;4957437;29;20106;-82
2023/01/09 09:57:52;;;;;;;1999.90;999.90;;;;;;;8.85;100.00;96555.50;4955910;29;20451;-78
2023/01/09 10:00:20;;;;;;;1999.90;999.90;;;;;;;8.77;100.00;96545.41;4956946;29;20115;-78
2023/01/09 10:02:50;;;;;;;1999.90;999.90;;;;;;;8.74;100.00;96546.06;4956616;29;20027;-80
2023/01/09 10:05:31;;;;;;;1999.90;999.90;;;;;;;8.81;100.00;96543.63;4956140;29;20031;-79
2023/01/09 10:08:02;;;;;;;1999.90;999.90;;;;;;;8.79;100.00;96532.25;4935117;29;20395;-82
2023/01/09 10:10:36;;;;;;;1999.90;999.90;;;;;;;8.77;100.00;96539.97;4954393;29;20114;-79
2023/01/09 10:16:09;;;;;;;1999.90;999.90;;;;;;;8.79;100.00;96543.16;4882392;29;20513;-79
2023/01/09 10:18:40;;;;;;;1999.90;999.90;;;;;;;8.87;100.00;96539.63;4935704;29;20039;-79
2023/01/09 10:21:14;;;;;;;1999.90;999.90;;;;;;;8.93;100.00;96530.97;4935713;29;20032;-80
2023/01/09 10:23:58;;;;;;;1999.90;999.90;;;;;;;8.97;100.00;96517.50;4936372;29;20325;-79
2023/01/09 10:26:36;;;;;;;1999.90;999.90;;;;;;;9.11;100.00;96518.16;4935786;29;20100;-80
2023/01/09 10:29:18;;;;;;;1999.90;999.90;;;;;;;9.22;100.00;96524.09;4936191;29;20044;-78
2023/01/09 10:32:02;;;;;;;1999.90;999.90;;;;;;;9.19;100.00;96531.00;4935888;29;20031;-77
2023/01/09 10:34:34;;;;;;;1999.90;999.90;;;;;;;9.22;100.00;96524.91;4935135;29;20047;-77
2023/01/09 10:37:09;;;;;;;1999.90;999.90;;;;;;;9.18;100.00;96523.91;4935252;29;20067;-77
2023/01/09 10:39:38;;;;;;;1999.90;999.90;;;;;;;9.19;100.00;96502.91;4935093;29;20118;-78
2023/01/09 10:42:10;;;;;;;1999.90;999.90;;;;;;;9.21;100.00;96498.72;4936699;29;20397;-76
2023/01/09 10:44:52;;;;;;;1999.90;999.90;;;;;;;9.19;100.00;96498.25;4937128;29;20409;-78
2023/01/09 10:47:23;;;;;;;1999.90;999.90;;;;;;;9.19;100.00;96492.81;4953659;29;20479;-79
2023/01/09 10:49:50;;;;;;;1999.90;999.90;;;;;;;9.15;100.00;96500.03;4953452;29;20031;-79
2023/01/09 10:52:19;;;;;;;1999.90;999.90;;;;;;;9.12;100.00;96508.84;4953585;29;20039;-76
2023/01/09 10:55:13;;;;;;;1999.90;999.90;;;;;;;9.11;100.00;96512.72;4953723;29;20597;-78
2023/01/09 10:57:42;;;;;;;1999.90;999.90;;;;;;;9.12;100.00;96536.13;4953176;29;20070;-77
2023/01/09 11:00:21;;;;;;;1999.90;999.90;;;;;;;8.99;100.00;96526.97;4953163;29;20031;-76
2023/01/09 11:02:50;;;;;;;1999.90;999.90;;;;;;;9.00;100.00;96527.78;4953084;29;20035;-79
2023/01/09 11:05:22;;;;;;;1999.90;999.90;;;;;;;9.00;100.00;96516.88;4952676;28;20166;-79
2023/01/09 11:08:29;;;;;;;1999.90;999.90;;;;;;;8.84;100.00;96513.00;4954034;29;20039;-79
2023/01/09 11:10:57;;;;;;;1999.90;999.90;;;;;;;8.77;100.00;96507.25;4937618;29;20589;-82
2023/01/09 11:13:31;;;;;;;1999.90;999.90;;;;;;;8.84;100.00;96513.81;4957543;29;20042;-81
2023/01/09 11:16:03;;;;;;;1999.90;999.90;;;;;;;8.89;100.00;96512.88;4954387;29;20031;-80